Terminal Aerodrome Forecast
Issued by NWS Grand Rapids, MI

Home | Current Version | Previous Version | Text Only | Print | Product List | Glossary On
Versions: 1 2 3 4 5 6 7 8 9 10 11 12 13 14 15 16 17 18 19 20 21
000
FTUS43 KGRR 020000 AAA
TAFGRR
TAF AMD
KGRR 020050Z 0201/0224 10006KT P6SM SCT050
     FM020900 00000KT 5SM BR SKC
     FM021300 30006KT P6SM SKC
     FM021800 31008KT P6SM VCTS BKN040CB=

USA.gov is the U.S. government's official web portal to all federal, state and local government web resources and services.